Pagina principală
METAR-TAF:

METAR-TAF

Aeroporturi :

Stigler, Oklahoma, Statele Unite ale Americii

Latitudine: 35-17-17N, longitudine: 095-05-38W, elevație: 183 m

Observații meteo curente

Raportul a fost făcut în urmă cu 24 de minute, la 21:55 UTC
Vânt 9 kt de la Vest cu rafale de până la 15 kt
Temperatură 36°C
Umiditate 45%
Presiune 1018 hPa
Vizibilitate: 16.1 km
Nori puțini la o înălțime de 5500 picior
Nori puțini la o înălțime de 6500 picior
Nori împrăștiați la o înălțime de 9000 picior

METAR: KGZL 222155Z AUTO 27009G15KT 10SM FEW055 FEW065 SCT090 36/22 A3005 RMK AO2

Ora: 17:19 (22:19 UTC)


TAF: lipsă

Observații și prognoze meteo pentru peste 4.000 de aeroporturi (rapoarte METAR și TAF).

Stațiile disponibile sunt reprezentate pe hartă prin puncte galbene și roșii.

Țineți indicatorul mouse-ului pe punctul dorit pentru a vedea denumirea stației.

Apoi, faceți clic pentru a vedea observațiile și prognozele meteorologice.

Pentru a schimba harta: Pentru mărire, faceți clic pe butoanele verzi cu cruce neagră; pentru micșorare, pe butonul verde cu o liniuță; pentru hărți învecinate, pe săgețile verzi.


METAR-TAF: